sensor_id;sensor_type;location;lat;lon;timestamp;P1;durP1;ratioP1;P2;durP2;ratioP2
29570;SDS011;16814;52.118;11.436;2022-12-18T00:01:21;97.88;;;41.10;;
29570;SDS011;16814;52.118;11.436;2022-12-18T00:03:49;87.53;;;41.63;;
29570;SDS011;16814;52.118;11.436;2022-12-18T00:06:16;140.68;;;41.05;;
29570;SDS011;16814;52.118;11.436;2022-12-18T00:08:42;90.50;;;39.00;;
29570;SDS011;16814;52.118;11.436;2022-12-18T00:11:10;124.25;;;40.28;;
29570;SDS011;16814;52.118;11.436;2022-12-18T00:13:41;89.13;;;39.85;;
29570;SDS011;16814;52.118;11.436;2022-12-18T00:16:09;98.43;;;40.30;;
29570;SDS011;16814;52.118;11.436;2022-12-18T00:18:36;91.47;;;40.28;;
29570;SDS011;16814;52.118;11.436;2022-12-18T00:21:04;90.63;;;39.78;;
29570;SDS011;16814;52.118;11.436;2022-12-18T00:23:31;93.32;;;40.50;;
29570;SDS011;16814;52.118;11.436;2022-12-18T00:26:01;87.03;;;41.08;;
29570;SDS011;16814;52.118;11.436;2022-12-18T00:28:29;116.55;;;42.67;;
29570;SDS011;16814;52.118;11.436;2022-12-18T00:31:05;88.00;;;41.83;;
29570;SDS011;16814;52.118;11.436;2022-12-18T00:33:33;90.35;;;40.80;;
29570;SDS011;16814;52.118;11.436;2022-12-18T00:36:00;96.25;;;39.05;;
29570;SDS011;16814;52.118;11.436;2022-12-18T00:38:36;101.75;;;39.50;;
29570;SDS011;16814;52.118;11.436;2022-12-18T00:41:03;93.57;;;41.27;;
29570;SDS011;16814;52.118;11.436;2022-12-18T00:43:31;95.63;;;41.38;;
29570;SDS011;16814;52.118;11.436;2022-12-18T00:45:57;86.93;;;41.47;;
29570;SDS011;16814;52.118;11.436;2022-12-18T00:48:22;94.13;;;40.90;;
29570;SDS011;16814;52.118;11.436;2022-12-18T00:50:49;100.10;;;40.93;;
29570;SDS011;16814;52.118;11.436;2022-12-18T00:53:15;90.63;;;39.00;;
29570;SDS011;16814;52.118;11.436;2022-12-18T00:55:40;106.80;;;40.33;;
29570;SDS011;16814;52.118;11.436;2022-12-18T00:58:07;88.90;;;38.50;;
29570;SDS011;16814;52.118;11.436;2022-12-18T01:00:34;81.88;;;35.53;;
29570;SDS011;16814;52.118;11.436;2022-12-18T01:03:00;97.97;;;36.47;;
29570;SDS011;16814;52.118;11.436;2022-12-18T01:05:25;91.23;;;37.40;;
29570;SDS011;16814;52.118;11.436;2022-12-18T01:07:52;86.03;;;37.97;;
29570;SDS011;16814;52.118;11.436;2022-12-18T01:10:17;86.97;;;36.30;;
29570;SDS011;16814;52.118;11.436;2022-12-18T01:12:43;85.15;;;37.05;;
29570;SDS011;16814;52.118;11.436;2022-12-18T01:15:09;123.40;;;38.33;;
29570;SDS011;16814;52.118;11.436;2022-12-18T01:17:35;93.28;;;38.75;;
29570;SDS011;16814;52.118;11.436;2022-12-18T01:20:01;92.67;;;37.50;;
29570;SDS011;16814;52.118;11.436;2022-12-18T01:22:26;82.35;;;37.08;;
29570;SDS011;16814;52.118;11.436;2022-12-18T01:24:52;87.33;;;37.70;;
29570;SDS011;16814;52.118;11.436;2022-12-18T01:27:17;104.73;;;36.23;;
29570;SDS011;16814;52.118;11.436;2022-12-18T01:29:43;79.07;;;36.50;;
29570;SDS011;16814;52.118;11.436;2022-12-18T01:32:08;74.80;;;34.70;;
29570;SDS011;16814;52.118;11.436;2022-12-18T01:34:37;75.63;;;33.97;;
29570;SDS011;16814;52.118;11.436;2022-12-18T01:37:04;77.10;;;33.03;;
29570;SDS011;16814;52.118;11.436;2022-12-18T01:39:30;74.65;;;33.50;;
29570;SDS011;16814;52.118;11.436;2022-12-18T01:41:57;72.25;;;32.55;;
29570;SDS011;16814;52.118;11.436;2022-12-18T01:50:12;97.90;;;32.05;;
29570;SDS011;16814;52.118;11.436;2022-12-18T01:52:51;73.78;;;33.05;;
29570;SDS011;16814;52.118;11.436;2022-12-18T01:55:19;91.35;;;35.97;;
29570;SDS011;16814;52.118;11.436;2022-12-18T01:57:49;83.05;;;34.85;;
29570;SDS011;16814;52.118;11.436;2022-12-18T02:00:17;91.78;;;37.13;;
29570;SDS011;16814;52.118;11.436;2022-12-18T02:02:45;95.35;;;36.67;;
29570;SDS011;16814;52.118;11.436;2022-12-18T02:05:11;94.97;;;35.28;;
29570;SDS011;16814;52.118;11.436;2022-12-18T02:08:02;91.00;;;37.65;;
29570;SDS011;16814;52.118;11.436;2022-12-18T02:13:53;90.20;;;35.80;;
29570;SDS011;16814;52.118;11.436;2022-12-18T02:16:52;82.75;;;35.70;;
29570;SDS011;16814;52.118;11.436;2022-12-18T02:22:20;91.85;;;37.92;;
29570;SDS011;16814;52.118;11.436;2022-12-18T02:28:16;95.93;;;35.92;;
29570;SDS011;16814;52.118;11.436;2022-12-18T02:30:47;81.45;;;35.35;;
29570;SDS011;16814;52.118;11.436;2022-12-18T02:33:13;101.38;;;36.83;;
29570;SDS011;16814;52.118;11.436;2022-12-18T02:35:40;82.33;;;33.30;;
29570;SDS011;16814;52.118;11.436;2022-12-18T02:38:09;75.40;;;31.92;;
29570;SDS011;16814;52.118;11.436;2022-12-18T02:40:37;89.82;;;32.70;;
29570;SDS011;16814;52.118;11.436;2022-12-18T02:43:07;93.57;;;33.70;;
29570;SDS011;16814;52.118;11.436;2022-12-18T02:45:34;74.70;;;32.35;;
29570;SDS011;16814;52.118;11.436;2022-12-18T02:47:59;81.70;;;33.38;;
29570;SDS011;16814;52.118;11.436;2022-12-18T02:53:04;90.53;;;31.85;;
29570;SDS011;16814;52.118;11.436;2022-12-18T02:55:53;98.82;;;33.25;;
29570;SDS011;16814;52.118;11.436;2022-12-18T02:58:55;69.70;;;31.57;;
29570;SDS011;16814;52.118;11.436;2022-12-18T03:01:25;70.20;;;31.13;;
29570;SDS011;16814;52.118;11.436;2022-12-18T03:04:08;77.27;;;33.20;;
29570;SDS011;16814;52.118;11.436;2022-12-18T03:06:46;74.90;;;32.53;;
29570;SDS011;16814;52.118;11.436;2022-12-18T03:09:24;81.88;;;31.77;;
29570;SDS011;16814;52.118;11.436;2022-12-18T03:12:03;72.63;;;32.50;;
29570;SDS011;16814;52.118;11.436;2022-12-18T03:14:58;73.50;;;32.30;;
29570;SDS011;16814;52.118;11.436;2022-12-18T03:17:42;65.95;;;30.38;;
29570;SDS011;16814;52.118;11.436;2022-12-18T03:20:13;64.38;;;29.13;;
29570;SDS011;16814;52.118;11.436;2022-12-18T03:22:42;68.22;;;30.75;;
29570;SDS011;16814;52.118;11.436;2022-12-18T03:25:13;69.72;;;29.45;;
29570;SDS011;16814;52.118;11.436;2022-12-18T03:27:41;63.10;;;28.20;;
29570;SDS011;16814;52.118;11.436;2022-12-18T03:30:11;81.85;;;27.25;;
29570;SDS011;16814;52.118;11.436;2022-12-18T03:32:40;73.07;;;28.55;;
29570;SDS011;16814;52.118;11.436;2022-12-18T03:35:13;69.55;;;30.00;;
29570;SDS011;16814;52.118;11.436;2022-12-18T03:37:43;67.40;;;30.00;;
29570;SDS011;16814;52.118;11.436;2022-12-18T03:40:09;70.57;;;29.73;;
29570;SDS011;16814;52.118;11.436;2022-12-18T03:45:26;70.32;;;30.48;;
29570;SDS011;16814;52.118;11.436;2022-12-18T03:48:06;77.78;;;31.38;;
29570;SDS011;16814;52.118;11.436;2022-12-18T03:50:57;70.55;;;30.58;;
29570;SDS011;16814;52.118;11.436;2022-12-18T03:53:32;71.70;;;31.35;;
29570;SDS011;16814;52.118;11.436;2022-12-18T03:56:08;70.10;;;30.93;;
29570;SDS011;16814;52.118;11.436;2022-12-18T03:58:34;83.05;;;32.28;;
29570;SDS011;16814;52.118;11.436;2022-12-18T04:01:04;78.25;;;31.45;;
29570;SDS011;16814;52.118;11.436;2022-12-18T04:03:35;83.45;;;34.22;;
29570;SDS011;16814;52.118;11.436;2022-12-18T04:06:03;81.95;;;34.10;;
29570;SDS011;16814;52.118;11.436;2022-12-18T04:08:30;76.05;;;33.35;;
29570;SDS011;16814;52.118;11.436;2022-12-18T04:10:56;80.65;;;32.85;;
29570;SDS011;16814;52.118;11.436;2022-12-18T04:13:23;72.30;;;32.13;;
29570;SDS011;16814;52.118;11.436;2022-12-18T04:15:49;82.10;;;34.05;;
29570;SDS011;16814;52.118;11.436;2022-12-18T04:18:15;82.88;;;34.55;;
29570;SDS011;16814;52.118;11.436;2022-12-18T04:20:41;80.75;;;35.47;;
29570;SDS011;16814;52.118;11.436;2022-12-18T04:23:06;99.30;;;36.03;;
29570;SDS011;16814;52.118;11.436;2022-12-18T04:25:32;85.10;;;36.08;;
29570;SDS011;16814;52.118;11.436;2022-12-18T04:27:57;93.67;;;35.77;;
29570;SDS011;16814;52.118;11.436;2022-12-18T04:30:23;77.93;;;33.80;;
29570;SDS011;16814;52.118;11.436;2022-12-18T04:32:48;81.72;;;34.83;;
29570;SDS011;16814;52.118;11.436;2022-12-18T04:35:14;99.37;;;35.83;;
29570;SDS011;16814;52.118;11.436;2022-12-18T04:37:40;76.05;;;33.45;;
29570;SDS011;16814;52.118;11.436;2022-12-18T04:40:05;80.70;;;35.70;;
29570;SDS011;16814;52.118;11.436;2022-12-18T04:42:31;79.82;;;35.03;;
29570;SDS011;16814;52.118;11.436;2022-12-18T04:44:57;83.07;;;34.60;;
29570;SDS011;16814;52.118;11.436;2022-12-18T04:47:22;78.73;;;32.23;;
29570;SDS011;16814;52.118;11.436;2022-12-18T04:49:48;70.40;;;32.63;;
29570;SDS011;16814;52.118;11.436;2022-12-18T04:52:13;83.93;;;31.07;;
29570;SDS011;16814;52.118;11.436;2022-12-18T04:54:39;78.05;;;32.58;;
29570;SDS011;16814;52.118;11.436;2022-12-18T04:57:05;81.90;;;31.80;;
29570;SDS011;16814;52.118;11.436;2022-12-18T04:59:30;74.40;;;33.60;;
29570;SDS011;16814;52.118;11.436;2022-12-18T05:01:56;83.90;;;35.13;;
29570;SDS011;16814;52.118;11.436;2022-12-18T05:04:21;96.90;;;37.38;;
29570;SDS011;16814;52.118;11.436;2022-12-18T05:06:47;89.10;;;35.60;;
29570;SDS011;16814;52.118;11.436;2022-12-18T05:09:12;95.87;;;37.03;;
29570;SDS011;16814;52.118;11.436;2022-12-18T05:11:38;85.70;;;35.78;;
29570;SDS011;16814;52.118;11.436;2022-12-18T05:14:03;82.67;;;35.47;;
29570;SDS011;16814;52.118;11.436;2022-12-18T05:16:29;80.47;;;34.57;;
29570;SDS011;16814;52.118;11.436;2022-12-18T05:18:54;116.50;;;38.03;;
29570;SDS011;16814;52.118;11.436;2022-12-18T05:21:20;99.28;;;37.53;;
29570;SDS011;16814;52.118;11.436;2022-12-18T05:23:46;108.87;;;39.23;;
29570;SDS011;16814;52.118;11.436;2022-12-18T05:26:14;109.90;;;40.83;;
29570;SDS011;16814;52.118;11.436;2022-12-18T05:28:41;122.43;;;42.75;;
29570;SDS011;16814;52.118;11.436;2022-12-18T05:31:07;117.37;;;41.57;;
29570;SDS011;16814;52.118;11.436;2022-12-18T05:33:33;135.17;;;42.13;;
29570;SDS011;16814;52.118;11.436;2022-12-18T05:36:00;122.88;;;43.88;;
29570;SDS011;16814;52.118;11.436;2022-12-18T05:38:27;130.43;;;44.08;;
29570;SDS011;16814;52.118;11.436;2022-12-18T05:40:54;126.37;;;43.77;;
29570;SDS011;16814;52.118;11.436;2022-12-18T05:43:21;128.90;;;46.63;;
29570;SDS011;16814;52.118;11.436;2022-12-18T05:45:49;133.88;;;46.03;;
29570;SDS011;16814;52.118;11.436;2022-12-18T05:48:16;148.50;;;48.72;;
29570;SDS011;16814;52.118;11.436;2022-12-18T05:50:42;167.23;;;51.58;;
29570;SDS011;16814;52.118;11.436;2022-12-18T05:53:12;168.70;;;49.78;;
29570;SDS011;16814;52.118;11.436;2022-12-18T05:55:40;164.90;;;48.80;;
29570;SDS011;16814;52.118;11.436;2022-12-18T05:58:07;135.15;;;46.72;;
29570;SDS011;16814;52.118;11.436;2022-12-18T06:00:35;114.38;;;41.95;;
29570;SDS011;16814;52.118;11.436;2022-12-18T06:03:06;94.75;;;38.33;;
29570;SDS011;16814;52.118;11.436;2022-12-18T06:05:36;103.88;;;39.30;;
29570;SDS011;16814;52.118;11.436;2022-12-18T06:08:03;97.30;;;35.17;;
29570;SDS011;16814;52.118;11.436;2022-12-18T06:10:29;94.10;;;36.17;;
29570;SDS011;16814;52.118;11.436;2022-12-18T06:12:55;103.00;;;38.33;;
29570;SDS011;16814;52.118;11.436;2022-12-18T06:15:21;100.63;;;40.08;;
29570;SDS011;16814;52.118;11.436;2022-12-18T06:17:46;105.57;;;39.07;;
29570;SDS011;16814;52.118;11.436;2022-12-18T06:20:12;130.47;;;45.80;;
29570;SDS011;16814;52.118;11.436;2022-12-18T06:22:37;126.93;;;49.63;;
29570;SDS011;16814;52.118;11.436;2022-12-18T06:25:03;141.40;;;51.47;;
29570;SDS011;16814;52.118;11.436;2022-12-18T06:27:29;144.02;;;51.10;;
29570;SDS011;16814;52.118;11.436;2022-12-18T06:29:55;131.27;;;49.80;;
29570;SDS011;16814;52.118;11.436;2022-12-18T06:32:20;116.45;;;46.30;;
29570;SDS011;16814;52.118;11.436;2022-12-18T06:34:46;119.50;;;45.33;;
29570;SDS011;16814;52.118;11.436;2022-12-18T06:37:11;151.38;;;45.17;;
29570;SDS011;16814;52.118;11.436;2022-12-18T06:39:37;120.90;;;44.10;;
29570;SDS011;16814;52.118;11.436;2022-12-18T06:42:03;133.57;;;42.60;;
29570;SDS011;16814;52.118;11.436;2022-12-18T06:44:28;120.50;;;43.97;;
29570;SDS011;16814;52.118;11.436;2022-12-18T06:46:54;112.35;;;43.20;;
29570;SDS011;16814;52.118;11.436;2022-12-18T06:49:20;147.90;;;46.17;;
29570;SDS011;16814;52.118;11.436;2022-12-18T06:51:46;128.07;;;44.50;;
29570;SDS011;16814;52.118;11.436;2022-12-18T06:54:12;134.52;;;45.35;;
29570;SDS011;16814;52.118;11.436;2022-12-18T06:56:37;116.53;;;45.05;;
29570;SDS011;16814;52.118;11.436;2022-12-18T06:59:03;112.68;;;45.15;;
29570;SDS011;16814;52.118;11.436;2022-12-18T07:01:29;115.70;;;45.60;;
29570;SDS011;16814;52.118;11.436;2022-12-18T07:03:55;115.95;;;47.38;;
29570;SDS011;16814;52.118;11.436;2022-12-18T07:06:22;116.05;;;47.65;;
29570;SDS011;16814;52.118;11.436;2022-12-18T07:08:49;122.07;;;48.53;;
29570;SDS011;16814;52.118;11.436;2022-12-18T07:11:16;125.28;;;48.00;;
29570;SDS011;16814;52.118;11.436;2022-12-18T07:13:43;115.53;;;47.97;;
29570;SDS011;16814;52.118;11.436;2022-12-18T07:16:10;128.85;;;49.90;;
29570;SDS011;16814;52.118;11.436;2022-12-18T07:18:37;112.13;;;47.35;;
29570;SDS011;16814;52.118;11.436;2022-12-18T07:21:04;118.90;;;48.13;;
29570;SDS011;16814;52.118;11.436;2022-12-18T07:23:31;121.57;;;48.10;;
29570;SDS011;16814;52.118;11.436;2022-12-18T07:26:00;113.60;;;46.70;;
29570;SDS011;16814;52.118;11.436;2022-12-18T07:28:30;114.50;;;45.13;;
29570;SDS011;16814;52.118;11.436;2022-12-18T07:30:56;117.75;;;48.05;;
29570;SDS011;16814;52.118;11.436;2022-12-18T07:33:22;130.33;;;52.57;;
29570;SDS011;16814;52.118;11.436;2022-12-18T07:35:48;132.20;;;51.90;;
29570;SDS011;16814;52.118;11.436;2022-12-18T07:38:13;145.00;;;55.97;;
29570;SDS011;16814;52.118;11.436;2022-12-18T07:40:39;117.47;;;48.93;;
29570;SDS011;16814;52.118;11.436;2022-12-18T07:43:04;113.97;;;46.45;;
29570;SDS011;16814;52.118;11.436;2022-12-18T07:45:30;115.57;;;46.13;;
29570;SDS011;16814;52.118;11.436;2022-12-18T07:47:55;109.83;;;46.17;;
29570;SDS011;16814;52.118;11.436;2022-12-18T07:50:21;104.00;;;44.00;;
29570;SDS011;16814;52.118;11.436;2022-12-18T07:52:47;106.30;;;44.63;;
29570;SDS011;16814;52.118;11.436;2022-12-18T07:55:12;107.73;;;44.67;;
29570;SDS011;16814;52.118;11.436;2022-12-18T07:57:38;104.75;;;44.30;;
29570;SDS011;16814;52.118;11.436;2022-12-18T08:00:04;119.23;;;48.50;;
29570;SDS011;16814;52.118;11.436;2022-12-18T08:02:30;112.13;;;46.90;;
29570;SDS011;16814;52.118;11.436;2022-12-18T08:04:56;108.75;;;46.20;;
29570;SDS011;16814;52.118;11.436;2022-12-18T08:07:22;102.72;;;42.47;;
29570;SDS011;16814;52.118;11.436;2022-12-18T08:09:48;98.73;;;44.10;;
29570;SDS011;16814;52.118;11.436;2022-12-18T08:12:13;101.17;;;43.17;;
29570;SDS011;16814;52.118;11.436;2022-12-18T08:14:39;101.18;;;42.75;;
29570;SDS011;16814;52.118;11.436;2022-12-18T08:17:05;102.07;;;42.30;;
29570;SDS011;16814;52.118;11.436;2022-12-18T08:19:30;105.30;;;43.67;;
29570;SDS011;16814;52.118;11.436;2022-12-18T08:21:56;103.25;;;44.03;;
29570;SDS011;16814;52.118;11.436;2022-12-18T08:24:21;104.20;;;44.50;;
29570;SDS011;16814;52.118;11.436;2022-12-18T08:26:47;101.97;;;44.33;;
29570;SDS011;16814;52.118;11.436;2022-12-18T08:29:13;108.13;;;44.70;;
29570;SDS011;16814;52.118;11.436;2022-12-18T08:31:38;101.65;;;44.40;;
29570;SDS011;16814;52.118;11.436;2022-12-18T08:34:04;104.10;;;44.00;;
29570;SDS011;16814;52.118;11.436;2022-12-18T08:36:29;102.70;;;42.43;;
29570;SDS011;16814;52.118;11.436;2022-12-18T08:38:56;103.15;;;44.35;;
29570;SDS011;16814;52.118;11.436;2022-12-18T08:41:21;104.28;;;44.00;;
29570;SDS011;16814;52.118;11.436;2022-12-18T08:43:47;108.33;;;45.90;;
29570;SDS011;16814;52.118;11.436;2022-12-18T08:46:34;111.68;;;46.17;;
29570;SDS011;16814;52.118;11.436;2022-12-18T08:49:05;107.40;;;43.35;;
29570;SDS011;16814;52.118;11.436;2022-12-18T08:51:31;110.55;;;44.60;;
29570;SDS011;16814;52.118;11.436;2022-12-18T08:53:57;110.97;;;47.97;;
29570;SDS011;16814;52.118;11.436;2022-12-18T08:56:22;107.60;;;44.83;;
29570;SDS011;16814;52.118;11.436;2022-12-18T08:58:50;99.47;;;42.22;;
29570;SDS011;16814;52.118;11.436;2022-12-18T09:01:17;99.77;;;42.77;;
29570;SDS011;16814;52.118;11.436;2022-12-18T09:03:42;94.37;;;42.10;;
29570;SDS011;16814;52.118;11.436;2022-12-18T09:06:08;96.07;;;42.78;;
29570;SDS011;16814;52.118;11.436;2022-12-18T09:08:33;93.70;;;41.27;;
29570;SDS011;16814;52.118;11.436;2022-12-18T09:10:59;94.67;;;43.20;;
29570;SDS011;16814;52.118;11.436;2022-12-18T09:13:25;107.53;;;46.42;;
29570;SDS011;16814;52.118;11.436;2022-12-18T09:15:51;109.30;;;46.45;;
29570;SDS011;16814;52.118;11.436;2022-12-18T09:18:19;116.47;;;48.00;;
29570;SDS011;16814;52.118;11.436;2022-12-18T09:20:46;107.82;;;47.90;;
29570;SDS011;16814;52.118;11.436;2022-12-18T09:23:11;112.30;;;48.38;;
29570;SDS011;16814;52.118;11.436;2022-12-18T09:25:38;107.00;;;46.20;;
29570;SDS011;16814;52.118;11.436;2022-12-18T09:28:10;105.27;;;47.17;;
29570;SDS011;16814;52.118;11.436;2022-12-18T09:30:41;105.72;;;47.65;;
29570;SDS011;16814;52.118;11.436;2022-12-18T09:33:09;122.60;;;52.92;;
29570;SDS011;16814;52.118;11.436;2022-12-18T09:35:38;129.48;;;56.35;;
29570;SDS011;16814;52.118;11.436;2022-12-18T09:38:04;119.22;;;54.83;;
29570;SDS011;16814;52.118;11.436;2022-12-18T09:40:35;121.43;;;54.03;;
29570;SDS011;16814;52.118;11.436;2022-12-18T09:43:05;133.27;;;57.90;;
29570;SDS011;16814;52.118;11.436;2022-12-18T09:45:39;123.40;;;55.22;;
29570;SDS011;16814;52.118;11.436;2022-12-18T09:48:51;119.53;;;52.25;;
29570;SDS011;16814;52.118;11.436;2022-12-18T09:51:02;119.78;;;52.25;;
29570;SDS011;16814;52.118;11.436;2022-12-18T09:53:35;105.18;;;47.28;;
29570;SDS011;16814;52.118;11.436;2022-12-18T09:56:03;104.72;;;46.60;;
29570;SDS011;16814;52.118;11.436;2022-12-18T10:00:58;106.97;;;47.40;;
29570;SDS011;16814;52.118;11.436;2022-12-18T10:03:23;100.47;;;44.42;;
29570;SDS011;16814;52.118;11.436;2022-12-18T10:05:53;99.80;;;43.10;;
29570;SDS011;16814;52.118;11.436;2022-12-18T10:08:43;97.07;;;45.17;;
29570;SDS011;16814;52.118;11.436;2022-12-18T10:11:37;94.68;;;44.38;;
29570;SDS011;16814;52.118;11.436;2022-12-18T10:14:27;102.97;;;47.55;;
29570;SDS011;16814;52.118;11.436;2022-12-18T10:17:14;109.25;;;49.38;;
29570;SDS011;16814;52.118;11.436;2022-12-18T10:19:59;99.22;;;46.05;;
29570;SDS011;16814;52.118;11.436;2022-12-18T10:28:26;97.68;;;42.72;;
29570;SDS011;16814;52.118;11.436;2022-12-18T10:30:54;86.15;;;40.90;;
29570;SDS011;16814;52.118;11.436;2022-12-18T10:33:21;85.78;;;39.67;;
29570;SDS011;16814;52.118;11.436;2022-12-18T10:35:48;87.18;;;40.38;;
29570;SDS011;16814;52.118;11.436;2022-12-18T10:43:23;97.63;;;41.67;;
29570;SDS011;16814;52.118;11.436;2022-12-18T10:46:01;100.20;;;44.78;;
29570;SDS011;16814;52.118;11.436;2022-12-18T10:48:30;90.97;;;41.20;;
29570;SDS011;16814;52.118;11.436;2022-12-18T10:50:58;84.87;;;39.57;;
29570;SDS011;16814;52.118;11.436;2022-12-18T10:53:25;85.30;;;40.15;;
29570;SDS011;16814;52.118;11.436;2022-12-18T10:55:54;89.85;;;43.08;;
29570;SDS011;16814;52.118;11.436;2022-12-18T10:58:26;127.45;;;54.55;;
29570;SDS011;16814;52.118;11.436;2022-12-18T11:03:41;113.82;;;47.63;;
29570;SDS011;16814;52.118;11.436;2022-12-18T11:06:13;107.15;;;46.53;;
29570;SDS011;16814;52.118;11.436;2022-12-18T11:08:46;127.93;;;53.95;;
29570;SDS011;16814;52.118;11.436;2022-12-18T11:11:29;115.80;;;50.90;;
29570;SDS011;16814;52.118;11.436;2022-12-18T11:13:58;109.27;;;48.60;;
29570;SDS011;16814;52.118;11.436;2022-12-18T11:16:43;103.50;;;46.53;;
29570;SDS011;16814;52.118;11.436;2022-12-18T11:19:13;98.13;;;43.83;;
29570;SDS011;16814;52.118;11.436;2022-12-18T11:21:56;81.50;;;38.33;;
29570;SDS011;16814;52.118;11.436;2022-12-18T11:26:57;76.30;;;37.95;;
29570;SDS011;16814;52.118;11.436;2022-12-18T11:29:31;77.13;;;37.60;;
29570;SDS011;16814;52.118;11.436;2022-12-18T11:32:13;73.90;;;36.00;;
29570;SDS011;16814;52.118;11.436;2022-12-18T11:35:11;76.25;;;36.75;;
29570;SDS011;16814;52.118;11.436;2022-12-18T11:37:54;69.18;;;32.72;;
29570;SDS011;16814;52.118;11.436;2022-12-18T11:40:27;73.40;;;34.58;;
29570;SDS011;16814;52.118;11.436;2022-12-18T11:42:59;72.80;;;36.70;;
29570;SDS011;16814;52.118;11.436;2022-12-18T11:45:35;77.88;;;36.70;;
29570;SDS011;16814;52.118;11.436;2022-12-18T11:48:21;82.22;;;37.58;;
29570;SDS011;16814;52.118;11.436;2022-12-18T11:50:51;71.23;;;34.90;;
29570;SDS011;16814;52.118;11.436;2022-12-18T11:53:21;62.17;;;31.25;;
29570;SDS011;16814;52.118;11.436;2022-12-18T11:55:50;68.38;;;31.27;;
29570;SDS011;16814;52.118;11.436;2022-12-18T11:58:51;75.45;;;32.97;;
29570;SDS011;16814;52.118;11.436;2022-12-18T12:01:51;79.27;;;36.07;;
29570;SDS011;16814;52.118;11.436;2022-12-18T12:04:28;81.25;;;35.20;;
29570;SDS011;16814;52.118;11.436;2022-12-18T12:07:25;75.57;;;33.55;;
29570;SDS011;16814;52.118;11.436;2022-12-18T12:18:08;79.63;;;36.90;;
29570;SDS011;16814;52.118;11.436;2022-12-18T12:26:33;82.32;;;36.05;;
29570;SDS011;16814;52.118;11.436;2022-12-18T12:29:07;76.00;;;36.42;;
29570;SDS011;16814;52.118;11.436;2022-12-18T12:31:55;90.28;;;38.70;;
29570;SDS011;16814;52.118;11.436;2022-12-18T12:35:20;79.43;;;37.83;;
29570;SDS011;16814;52.118;11.436;2022-12-18T12:40:18;74.47;;;33.95;;
29570;SDS011;16814;52.118;11.436;2022-12-18T12:42:51;66.60;;;33.17;;
29570;SDS011;16814;52.118;11.436;2022-12-18T12:48:27;64.03;;;31.67;;
29570;SDS011;16814;52.118;11.436;2022-12-18T12:53:53;67.00;;;31.92;;
29570;SDS011;16814;52.118;11.436;2022-12-18T12:56:20;64.18;;;31.98;;
29570;SDS011;16814;52.118;11.436;2022-12-18T12:58:59;65.68;;;31.83;;
29570;SDS011;16814;52.118;11.436;2022-12-18T13:01:36;66.13;;;32.50;;
29570;SDS011;16814;52.118;11.436;2022-12-18T13:12:51;63.33;;;30.52;;
29570;SDS011;16814;52.118;11.436;2022-12-18T13:15:21;64.03;;;32.23;;
29570;SDS011;16814;52.118;11.436;2022-12-18T13:20:34;68.68;;;33.25;;
29570;SDS011;16814;52.118;11.436;2022-12-18T13:25:52;72.88;;;36.00;;
29570;SDS011;16814;52.118;11.436;2022-12-18T13:30:57;67.30;;;33.08;;
29570;SDS011;16814;52.118;11.436;2022-12-18T13:39:08;67.00;;;31.67;;
29570;SDS011;16814;52.118;11.436;2022-12-18T13:41:47;62.85;;;30.85;;
29570;SDS011;16814;52.118;11.436;2022-12-18T13:46:57;62.70;;;31.63;;
29570;SDS011;16814;52.118;11.436;2022-12-18T13:52:01;65.45;;;32.38;;
29570;SDS011;16814;52.118;11.436;2022-12-18T13:54:39;66.28;;;31.95;;
29570;SDS011;16814;52.118;11.436;2022-12-18T13:57:24;68.85;;;32.65;;
29570;SDS011;16814;52.118;11.436;2022-12-18T13:59:54;80.40;;;36.28;;
29570;SDS011;16814;52.118;11.436;2022-12-18T14:02:25;70.75;;;32.53;;
29570;SDS011;16814;52.118;11.436;2022-12-18T14:04:52;68.90;;;34.17;;
29570;SDS011;16814;52.118;11.436;2022-12-18T14:07:25;68.40;;;33.50;;
29570;SDS011;16814;52.118;11.436;2022-12-18T14:09:57;65.18;;;31.05;;
29570;SDS011;16814;52.118;11.436;2022-12-18T14:12:30;65.73;;;32.07;;
29570;SDS011;16814;52.118;11.436;2022-12-18T14:17:44;74.30;;;33.03;;
29570;SDS011;16814;52.118;11.436;2022-12-18T14:20:13;66.13;;;31.27;;
29570;SDS011;16814;52.118;11.436;2022-12-18T14:22:42;64.38;;;31.20;;
29570;SDS011;16814;52.118;11.436;2022-12-18T14:25:20;62.43;;;29.30;;
29570;SDS011;16814;52.118;11.436;2022-12-18T14:27:51;59.53;;;29.00;;
29570;SDS011;16814;52.118;11.436;2022-12-18T14:30:26;55.42;;;27.35;;
29570;SDS011;16814;52.118;11.436;2022-12-18T14:33:04;55.78;;;26.55;;
29570;SDS011;16814;52.118;11.436;2022-12-18T14:35:30;62.22;;;29.40;;
29570;SDS011;16814;52.118;11.436;2022-12-18T14:41:05;54.60;;;26.27;;
29570;SDS011;16814;52.118;11.436;2022-12-18T14:43:36;55.10;;;26.90;;
29570;SDS011;16814;52.118;11.436;2022-12-18T14:49:01;60.47;;;27.77;;
29570;SDS011;16814;52.118;11.436;2022-12-18T14:51:33;59.87;;;29.37;;
29570;SDS011;16814;52.118;11.436;2022-12-18T14:54:00;66.28;;;31.83;;
29570;SDS011;16814;52.118;11.436;2022-12-18T14:56:28;70.22;;;34.03;;
29570;SDS011;16814;52.118;11.436;2022-12-18T14:59:00;61.30;;;28.25;;
29570;SDS011;16814;52.118;11.436;2022-12-18T15:01:32;66.43;;;32.67;;
29570;SDS011;16814;52.118;11.436;2022-12-18T15:04:01;62.17;;;30.23;;
29570;SDS011;16814;52.118;11.436;2022-12-18T15:06:33;84.32;;;35.33;;
29570;SDS011;16814;52.118;11.436;2022-12-18T15:09:21;62.33;;;29.53;;
29570;SDS011;16814;52.118;11.436;2022-12-18T15:11:48;64.25;;;30.40;;
29570;SDS011;16814;52.118;11.436;2022-12-18T15:14:24;60.03;;;30.13;;
29570;SDS011;16814;52.118;11.436;2022-12-18T15:16:55;61.57;;;30.67;;
29570;SDS011;16814;52.118;11.436;2022-12-18T15:19:22;58.85;;;29.27;;
29570;SDS011;16814;52.118;11.436;2022-12-18T15:21:57;63.83;;;30.70;;
29570;SDS011;16814;52.118;11.436;2022-12-18T15:24:24;65.03;;;31.13;;
29570;SDS011;16814;52.118;11.436;2022-12-18T15:26:56;60.72;;;29.83;;
29570;SDS011;16814;52.118;11.436;2022-12-18T15:29:22;66.05;;;30.60;;
29570;SDS011;16814;52.118;11.436;2022-12-18T15:32:03;62.72;;;29.50;;
29570;SDS011;16814;52.118;11.436;2022-12-18T15:34:30;60.92;;;29.17;;
29570;SDS011;16814;52.118;11.436;2022-12-18T15:36:56;58.78;;;28.85;;
29570;SDS011;16814;52.118;11.436;2022-12-18T15:39:22;63.08;;;29.88;;
29570;SDS011;16814;52.118;11.436;2022-12-18T15:41:48;63.42;;;30.75;;
29570;SDS011;16814;52.118;11.436;2022-12-18T15:44:32;66.18;;;30.17;;
29570;SDS011;16814;52.118;11.436;2022-12-18T15:46:58;66.25;;;30.27;;
29570;SDS011;16814;52.118;11.436;2022-12-18T15:49:24;63.13;;;28.52;;
29570;SDS011;16814;52.118;11.436;2022-12-18T15:51:51;63.70;;;30.25;;
29570;SDS011;16814;52.118;11.436;2022-12-18T15:54:19;66.35;;;30.27;;
29570;SDS011;16814;52.118;11.436;2022-12-18T15:57:04;63.70;;;29.60;;
29570;SDS011;16814;52.118;11.436;2022-12-18T15:59:48;78.65;;;34.72;;